sensor_id;sensor_type;location;lat;lon;timestamp;P1;durP1;ratioP1;P2;durP2;ratioP2
19828;SDS011;10075;50.924;4.396;2024-03-02T00:01:35;1.00;;;0.60;;
19828;SDS011;10075;50.924;4.396;2024-03-02T00:04:03;1.20;;;0.73;;
19828;SDS011;10075;50.924;4.396;2024-03-02T00:06:33;1.77;;;0.70;;
19828;SDS011;10075;50.924;4.396;2024-03-02T00:09:00;2.87;;;0.80;;
19828;SDS011;10075;50.924;4.396;2024-03-02T00:11:27;2.03;;;0.90;;
19828;SDS011;10075;50.924;4.396;2024-03-02T00:13:54;2.80;;;0.80;;
19828;SDS011;10075;50.924;4.396;2024-03-02T00:16:21;1.57;;;0.80;;
19828;SDS011;10075;50.924;4.396;2024-03-02T00:18:49;2.37;;;1.13;;
19828;SDS011;10075;50.924;4.396;2024-03-02T00:21:16;2.87;;;0.97;;
19828;SDS011;10075;50.924;4.396;2024-03-02T00:23:48;4.37;;;1.07;;
19828;SDS011;10075;50.924;4.396;2024-03-02T00:26:17;2.30;;;1.00;;
19828;SDS011;10075;50.924;4.396;2024-03-02T00:28:44;1.87;;;1.07;;
19828;SDS011;10075;50.924;4.396;2024-03-02T00:31:11;1.77;;;1.00;;
19828;SDS011;10075;50.924;4.396;2024-03-02T00:33:40;2.90;;;1.70;;
19828;SDS011;10075;50.924;4.396;2024-03-02T00:36:09;1.60;;;0.90;;
19828;SDS011;10075;50.924;4.396;2024-03-02T00:38:42;3.17;;;0.83;;
19828;SDS011;10075;50.924;4.396;2024-03-02T00:41:17;2.50;;;0.60;;
19828;SDS011;10075;50.924;4.396;2024-03-02T00:43:50;1.87;;;0.93;;
19828;SDS011;10075;50.924;4.396;2024-03-02T00:46:23;4.63;;;0.60;;
19828;SDS011;10075;50.924;4.396;2024-03-02T00:48:51;2.27;;;1.00;;
19828;SDS011;10075;50.924;4.396;2024-03-02T00:51:20;1.03;;;0.50;;
19828;SDS011;10075;50.924;4.396;2024-03-02T00:53:48;1.97;;;0.70;;
19828;SDS011;10075;50.924;4.396;2024-03-02T00:56:17;0.50;;;0.50;;
19828;SDS011;10075;50.924;4.396;2024-03-02T00:58:44;1.00;;;0.60;;
19828;SDS011;10075;50.924;4.396;2024-03-02T01:01:11;2.63;;;0.70;;
19828;SDS011;10075;50.924;4.396;2024-03-02T01:03:38;0.83;;;0.60;;
19828;SDS011;10075;50.924;4.396;2024-03-02T01:06:06;1.13;;;0.50;;
19828;SDS011;10075;50.924;4.396;2024-03-02T01:08:34;1.07;;;0.77;;
19828;SDS011;10075;50.924;4.396;2024-03-02T01:11:01;2.43;;;0.50;;
19828;SDS011;10075;50.924;4.396;2024-03-02T01:13:29;2.70;;;0.70;;
19828;SDS011;10075;50.924;4.396;2024-03-02T01:15:57;1.23;;;0.60;;
19828;SDS011;10075;50.924;4.396;2024-03-02T01:18:24;1.00;;;0.60;;
19828;SDS011;10075;50.924;4.396;2024-03-02T01:20:51;3.50;;;0.53;;
19828;SDS011;10075;50.924;4.396;2024-03-02T01:23:20;2.07;;;0.80;;
19828;SDS011;10075;50.924;4.396;2024-03-02T01:25:47;2.87;;;0.87;;
19828;SDS011;10075;50.924;4.396;2024-03-02T01:28:14;1.07;;;0.50;;
19828;SDS011;10075;50.924;4.396;2024-03-02T01:30:43;0.40;;;0.40;;
19828;SDS011;10075;50.924;4.396;2024-03-02T01:33:10;1.77;;;0.50;;
19828;SDS011;10075;50.924;4.396;2024-03-02T01:35:37;0.40;;;0.40;;
19828;SDS011;10075;50.924;4.396;2024-03-02T01:38:04;0.43;;;0.40;;
19828;SDS011;10075;50.924;4.396;2024-03-02T01:40:32;1.03;;;0.40;;
19828;SDS011;10075;50.924;4.396;2024-03-02T01:43:00;0.70;;;0.40;;
19828;SDS011;10075;50.924;4.396;2024-03-02T01:45:27;2.43;;;0.50;;
19828;SDS011;10075;50.924;4.396;2024-03-02T01:47:56;0.93;;;0.50;;
19828;SDS011;10075;50.924;4.396;2024-03-02T01:50:26;2.73;;;0.87;;
19828;SDS011;10075;50.924;4.396;2024-03-02T01:52:54;1.27;;;0.50;;
19828;SDS011;10075;50.924;4.396;2024-03-02T01:55:21;0.40;;;0.40;;
19828;SDS011;10075;50.924;4.396;2024-03-02T01:57:48;1.23;;;0.50;;
19828;SDS011;10075;50.924;4.396;2024-03-02T02:00:17;1.83;;;0.43;;
19828;SDS011;10075;50.924;4.396;2024-03-02T02:02:44;1.37;;;0.63;;
19828;SDS011;10075;50.924;4.396;2024-03-02T02:05:13;1.37;;;0.50;;
19828;SDS011;10075;50.924;4.396;2024-03-02T02:07:40;1.07;;;0.60;;
19828;SDS011;10075;50.924;4.396;2024-03-02T02:10:08;0.80;;;0.50;;
19828;SDS011;10075;50.924;4.396;2024-03-02T02:12:36;2.40;;;0.60;;
19828;SDS011;10075;50.924;4.396;2024-03-02T02:15:03;1.87;;;0.60;;
19828;SDS011;10075;50.924;4.396;2024-03-02T02:17:30;3.23;;;0.60;;
19828;SDS011;10075;50.924;4.396;2024-03-02T02:19:57;1.97;;;0.60;;
19828;SDS011;10075;50.924;4.396;2024-03-02T02:22:26;0.40;;;0.40;;
19828;SDS011;10075;50.924;4.396;2024-03-02T02:24:52;1.00;;;0.60;;
19828;SDS011;10075;50.924;4.396;2024-03-02T02:27:19;3.60;;;0.60;;
19828;SDS011;10075;50.924;4.396;2024-03-02T02:29:46;2.50;;;0.60;;
19828;SDS011;10075;50.924;4.396;2024-03-02T02:32:13;2.37;;;0.67;;
19828;SDS011;10075;50.924;4.396;2024-03-02T02:34:40;1.63;;;0.60;;
19828;SDS011;10075;50.924;4.396;2024-03-02T02:37:07;2.23;;;0.60;;
19828;SDS011;10075;50.924;4.396;2024-03-02T02:39:35;1.73;;;0.70;;
19828;SDS011;10075;50.924;4.396;2024-03-02T02:42:02;2.70;;;0.70;;
19828;SDS011;10075;50.924;4.396;2024-03-02T02:44:29;0.87;;;0.50;;
19828;SDS011;10075;50.924;4.396;2024-03-02T02:46:56;1.60;;;0.67;;
19828;SDS011;10075;50.924;4.396;2024-03-02T02:49:23;3.37;;;0.90;;
19828;SDS011;10075;50.924;4.396;2024-03-02T02:51:50;2.07;;;0.60;;
19828;SDS011;10075;50.924;4.396;2024-03-02T02:54:18;1.57;;;0.60;;
19828;SDS011;10075;50.924;4.396;2024-03-02T02:56:46;4.80;;;0.70;;
19828;SDS011;10075;50.924;4.396;2024-03-02T02:59:13;7.80;;;0.70;;
19828;SDS011;10075;50.924;4.396;2024-03-02T03:01:40;3.33;;;0.70;;
19828;SDS011;10075;50.924;4.396;2024-03-02T03:04:07;3.43;;;0.70;;
19828;SDS011;10075;50.924;4.396;2024-03-02T03:06:34;2.73;;;1.20;;
19828;SDS011;10075;50.924;4.396;2024-03-02T03:09:00;2.47;;;0.70;;
19828;SDS011;10075;50.924;4.396;2024-03-02T03:11:28;1.37;;;0.60;;
19828;SDS011;10075;50.924;4.396;2024-03-02T03:13:56;3.83;;;0.60;;
19828;SDS011;10075;50.924;4.396;2024-03-02T03:16:23;1.57;;;0.70;;
19828;SDS011;10075;50.924;4.396;2024-03-02T03:18:50;2.10;;;0.60;;
19828;SDS011;10075;50.924;4.396;2024-03-02T03:21:18;1.97;;;0.70;;
19828;SDS011;10075;50.924;4.396;2024-03-02T03:23:45;5.30;;;0.90;;
19828;SDS011;10075;50.924;4.396;2024-03-02T03:26:12;3.07;;;0.70;;
19828;SDS011;10075;50.924;4.396;2024-03-02T03:28:39;6.37;;;1.00;;
19828;SDS011;10075;50.924;4.396;2024-03-02T03:31:07;3.40;;;0.90;;
19828;SDS011;10075;50.924;4.396;2024-03-02T03:33:35;2.10;;;0.73;;
19828;SDS011;10075;50.924;4.396;2024-03-02T03:36:02;1.40;;;0.80;;
19828;SDS011;10075;50.924;4.396;2024-03-02T03:38:30;4.60;;;0.83;;
19828;SDS011;10075;50.924;4.396;2024-03-02T03:40:57;2.60;;;0.73;;
19828;SDS011;10075;50.924;4.396;2024-03-02T03:43:23;2.97;;;1.50;;
19828;SDS011;10075;50.924;4.396;2024-03-02T03:45:51;2.10;;;0.80;;
19828;SDS011;10075;50.924;4.396;2024-03-02T03:48:19;2.53;;;0.80;;
19828;SDS011;10075;50.924;4.396;2024-03-02T03:50:46;2.37;;;0.73;;
19828;SDS011;10075;50.924;4.396;2024-03-02T03:53:13;0.80;;;0.60;;
19828;SDS011;10075;50.924;4.396;2024-03-02T03:55:40;2.00;;;0.80;;
19828;SDS011;10075;50.924;4.396;2024-03-02T03:58:08;3.20;;;0.90;;
19828;SDS011;10075;50.924;4.396;2024-03-02T04:00:34;2.70;;;0.90;;
19828;SDS011;10075;50.924;4.396;2024-03-02T04:03:01;1.03;;;0.70;;
19828;SDS011;10075;50.924;4.396;2024-03-02T04:05:30;4.57;;;1.13;;
19828;SDS011;10075;50.924;4.396;2024-03-02T04:07:57;2.77;;;0.90;;
19828;SDS011;10075;50.924;4.396;2024-03-02T04:10:23;1.63;;;0.70;;
19828;SDS011;10075;50.924;4.396;2024-03-02T04:12:50;3.00;;;1.00;;
19828;SDS011;10075;50.924;4.396;2024-03-02T04:15:17;2.90;;;0.83;;
19828;SDS011;10075;50.924;4.396;2024-03-02T04:17:45;5.00;;;1.07;;
19828;SDS011;10075;50.924;4.396;2024-03-02T04:20:11;1.27;;;0.70;;
19828;SDS011;10075;50.924;4.396;2024-03-02T04:22:40;2.07;;;0.70;;
19828;SDS011;10075;50.924;4.396;2024-03-02T04:25:07;4.63;;;0.80;;
19828;SDS011;10075;50.924;4.396;2024-03-02T04:27:34;5.63;;;1.27;;
19828;SDS011;10075;50.924;4.396;2024-03-02T04:30:02;0.77;;;0.57;;
19828;SDS011;10075;50.924;4.396;2024-03-02T04:32:30;2.17;;;0.60;;
19828;SDS011;10075;50.924;4.396;2024-03-02T04:34:57;5.30;;;0.87;;
19828;SDS011;10075;50.924;4.396;2024-03-02T04:37:24;2.23;;;0.73;;
19828;SDS011;10075;50.924;4.396;2024-03-02T04:39:52;7.30;;;1.00;;
19828;SDS011;10075;50.924;4.396;2024-03-02T04:42:19;2.50;;;0.90;;
19828;SDS011;10075;50.924;4.396;2024-03-02T04:44:47;3.57;;;1.20;;
19828;SDS011;10075;50.924;4.396;2024-03-02T04:47:14;4.07;;;0.70;;
19828;SDS011;10075;50.924;4.396;2024-03-02T04:49:41;4.53;;;1.20;;
19828;SDS011;10075;50.924;4.396;2024-03-02T04:52:08;5.07;;;0.80;;
19828;SDS011;10075;50.924;4.396;2024-03-02T04:54:35;4.17;;;0.90;;
19828;SDS011;10075;50.924;4.396;2024-03-02T04:57:24;2.70;;;0.73;;
19828;SDS011;10075;50.924;4.396;2024-03-02T04:59:50;2.83;;;0.90;;
19828;SDS011;10075;50.924;4.396;2024-03-02T05:02:17;5.47;;;1.30;;
19828;SDS011;10075;50.924;4.396;2024-03-02T05:04:44;2.07;;;0.73;;
19828;SDS011;10075;50.924;4.396;2024-03-02T05:07:13;6.50;;;1.00;;
19828;SDS011;10075;50.924;4.396;2024-03-02T05:09:41;7.63;;;1.47;;
19828;SDS011;10075;50.924;4.396;2024-03-02T05:12:08;4.13;;;1.13;;
19828;SDS011;10075;50.924;4.396;2024-03-02T05:14:52;2.43;;;0.90;;
19828;SDS011;10075;50.924;4.396;2024-03-02T05:17:19;3.13;;;0.97;;
19828;SDS011;10075;50.924;4.396;2024-03-02T05:19:46;7.40;;;1.93;;
19828;SDS011;10075;50.924;4.396;2024-03-02T05:22:13;1.63;;;0.70;;
19828;SDS011;10075;50.924;4.396;2024-03-02T05:24:40;5.20;;;1.00;;
19828;SDS011;10075;50.924;4.396;2024-03-02T05:27:07;1.50;;;0.70;;
19828;SDS011;10075;50.924;4.396;2024-03-02T05:29:34;6.90;;;1.13;;
19828;SDS011;10075;50.924;4.396;2024-03-02T05:32:02;2.87;;;0.97;;
19828;SDS011;10075;50.924;4.396;2024-03-02T05:34:29;7.03;;;1.70;;
19828;SDS011;10075;50.924;4.396;2024-03-02T05:36:58;4.10;;;1.33;;
19828;SDS011;10075;50.924;4.396;2024-03-02T05:39:24;2.97;;;0.93;;
19828;SDS011;10075;50.924;4.396;2024-03-02T05:41:51;2.33;;;0.87;;
19828;SDS011;10075;50.924;4.396;2024-03-02T05:44:18;3.03;;;0.90;;
19828;SDS011;10075;50.924;4.396;2024-03-02T05:46:45;7.57;;;1.60;;
19828;SDS011;10075;50.924;4.396;2024-03-02T05:49:14;6.23;;;1.40;;
19828;SDS011;10075;50.924;4.396;2024-03-02T05:51:41;9.53;;;1.50;;
19828;SDS011;10075;50.924;4.396;2024-03-02T05:54:08;4.83;;;1.43;;
19828;SDS011;10075;50.924;4.396;2024-03-02T05:56:35;5.50;;;1.17;;
19828;SDS011;10075;50.924;4.396;2024-03-02T05:59:02;8.23;;;1.30;;
19828;SDS011;10075;50.924;4.396;2024-03-02T06:01:37;5.60;;;1.00;;
19828;SDS011;10075;50.924;4.396;2024-03-02T06:04:04;8.77;;;1.50;;
19828;SDS011;10075;50.924;4.396;2024-03-02T06:06:33;3.30;;;1.00;;
19828;SDS011;10075;50.924;4.396;2024-03-02T06:09:00;2.80;;;1.10;;
19828;SDS011;10075;50.924;4.396;2024-03-02T06:11:27;5.83;;;1.40;;
19828;SDS011;10075;50.924;4.396;2024-03-02T06:13:54;6.43;;;1.10;;
19828;SDS011;10075;50.924;4.396;2024-03-02T06:16:21;4.50;;;1.30;;
19828;SDS011;10075;50.924;4.396;2024-03-02T06:18:48;6.17;;;1.30;;
19828;SDS011;10075;50.924;4.396;2024-03-02T06:21:16;7.70;;;1.30;;
19828;SDS011;10075;50.924;4.396;2024-03-02T06:23:45;2.63;;;0.67;;
19828;SDS011;10075;50.924;4.396;2024-03-02T06:26:12;4.80;;;1.50;;
19828;SDS011;10075;50.924;4.396;2024-03-02T06:28:39;10.23;;;1.30;;
19828;SDS011;10075;50.924;4.396;2024-03-02T06:31:06;7.50;;;1.17;;
19828;SDS011;10075;50.924;4.396;2024-03-02T06:33:33;7.57;;;1.40;;
19828;SDS011;10075;50.924;4.396;2024-03-02T06:36:00;6.70;;;1.40;;
19828;SDS011;10075;50.924;4.396;2024-03-02T06:38:27;3.37;;;1.23;;
19828;SDS011;10075;50.924;4.396;2024-03-02T06:40:55;5.47;;;1.00;;
19828;SDS011;10075;50.924;4.396;2024-03-02T06:43:22;3.23;;;1.27;;
19828;SDS011;10075;50.924;4.396;2024-03-02T06:45:49;3.63;;;1.00;;
19828;SDS011;10075;50.924;4.396;2024-03-02T06:48:16;6.07;;;1.10;;
19828;SDS011;10075;50.924;4.396;2024-03-02T06:50:45;5.93;;;1.83;;
19828;SDS011;10075;50.924;4.396;2024-03-02T06:53:12;8.00;;;1.77;;
19828;SDS011;10075;50.924;4.396;2024-03-02T06:55:42;3.60;;;1.60;;
19828;SDS011;10075;50.924;4.396;2024-03-02T06:58:10;8.47;;;1.77;;
19828;SDS011;10075;50.924;4.396;2024-03-02T07:00:37;5.80;;;1.60;;
19828;SDS011;10075;50.924;4.396;2024-03-02T07:03:04;4.03;;;1.57;;
19828;SDS011;10075;50.924;4.396;2024-03-02T07:05:31;3.90;;;1.50;;
19828;SDS011;10075;50.924;4.396;2024-03-02T07:07:58;6.20;;;1.47;;
19828;SDS011;10075;50.924;4.396;2024-03-02T07:10:26;7.10;;;1.63;;
19828;SDS011;10075;50.924;4.396;2024-03-02T07:12:53;7.43;;;1.80;;
19828;SDS011;10075;50.924;4.396;2024-03-02T07:15:21;6.60;;;1.27;;
19828;SDS011;10075;50.924;4.396;2024-03-02T07:18:08;9.93;;;1.37;;
19828;SDS011;10075;50.924;4.396;2024-03-02T07:20:35;5.60;;;1.37;;
19828;SDS011;10075;50.924;4.396;2024-03-02T07:23:04;6.17;;;1.33;;
19828;SDS011;10075;50.924;4.396;2024-03-02T07:25:31;5.30;;;1.80;;
19828;SDS011;10075;50.924;4.396;2024-03-02T07:27:58;4.47;;;1.20;;
19828;SDS011;10075;50.924;4.396;2024-03-02T07:30:26;8.03;;;1.43;;
19828;SDS011;10075;50.924;4.396;2024-03-02T07:32:53;4.50;;;1.23;;
19828;SDS011;10075;50.924;4.396;2024-03-02T07:35:20;10.17;;;1.40;;
19828;SDS011;10075;50.924;4.396;2024-03-02T07:37:51;5.97;;;1.50;;
19828;SDS011;10075;50.924;4.396;2024-03-02T07:40:18;2.17;;;1.00;;
19828;SDS011;10075;50.924;4.396;2024-03-02T07:42:46;4.17;;;1.47;;
19828;SDS011;10075;50.924;4.396;2024-03-02T07:45:13;6.70;;;1.27;;
19828;SDS011;10075;50.924;4.396;2024-03-02T07:47:41;3.37;;;1.23;;
19828;SDS011;10075;50.924;4.396;2024-03-02T07:50:09;6.77;;;1.73;;
19828;SDS011;10075;50.924;4.396;2024-03-02T07:52:35;4.90;;;1.30;;
19828;SDS011;10075;50.924;4.396;2024-03-02T07:55:03;5.53;;;1.30;;
19828;SDS011;10075;50.924;4.396;2024-03-02T07:57:30;4.93;;;1.20;;
19828;SDS011;10075;50.924;4.396;2024-03-02T07:59:58;4.30;;;1.50;;
19828;SDS011;10075;50.924;4.396;2024-03-02T08:02:25;8.70;;;1.67;;
19828;SDS011;10075;50.924;4.396;2024-03-02T08:04:53;6.60;;;1.53;;
19828;SDS011;10075;50.924;4.396;2024-03-02T08:07:20;6.17;;;1.50;;
19828;SDS011;10075;50.924;4.396;2024-03-02T08:09:47;5.93;;;1.50;;
19828;SDS011;10075;50.924;4.396;2024-03-02T08:12:14;4.63;;;1.43;;
19828;SDS011;10075;50.924;4.396;2024-03-02T08:14:41;3.90;;;1.30;;
19828;SDS011;10075;50.924;4.396;2024-03-02T08:17:08;6.97;;;1.37;;
19828;SDS011;10075;50.924;4.396;2024-03-02T08:19:36;8.10;;;1.40;;
19828;SDS011;10075;50.924;4.396;2024-03-02T08:22:05;8.13;;;1.30;;
19828;SDS011;10075;50.924;4.396;2024-03-02T08:24:32;11.57;;;2.53;;
19828;SDS011;10075;50.924;4.396;2024-03-02T08:26:59;6.07;;;1.50;;
19828;SDS011;10075;50.924;4.396;2024-03-02T08:29:26;4.87;;;1.43;;
19828;SDS011;10075;50.924;4.396;2024-03-02T08:31:53;6.50;;;1.47;;
19828;SDS011;10075;50.924;4.396;2024-03-02T08:34:20;6.00;;;1.40;;
19828;SDS011;10075;50.924;4.396;2024-03-02T08:36:47;3.73;;;1.40;;
19828;SDS011;10075;50.924;4.396;2024-03-02T08:39:16;7.43;;;1.63;;
19828;SDS011;10075;50.924;4.396;2024-03-02T08:41:44;7.57;;;1.70;;
19828;SDS011;10075;50.924;4.396;2024-03-02T08:44:12;5.83;;;1.17;;
19828;SDS011;10075;50.924;4.396;2024-03-02T08:46:39;5.90;;;1.33;;
19828;SDS011;10075;50.924;4.396;2024-03-02T08:49:06;6.67;;;1.27;;
19828;SDS011;10075;50.924;4.396;2024-03-02T08:51:34;4.50;;;1.33;;
19828;SDS011;10075;50.924;4.396;2024-03-02T08:54:01;5.63;;;1.30;;
19828;SDS011;10075;50.924;4.396;2024-03-02T08:56:30;9.53;;;1.20;;
19828;SDS011;10075;50.924;4.396;2024-03-02T08:58:57;5.07;;;1.57;;
19828;SDS011;10075;50.924;4.396;2024-03-02T09:01:24;4.73;;;1.53;;
19828;SDS011;10075;50.924;4.396;2024-03-02T09:03:51;7.20;;;1.40;;
19828;SDS011;10075;50.924;4.396;2024-03-02T09:06:18;4.47;;;1.13;;
19828;SDS011;10075;50.924;4.396;2024-03-02T09:08:46;6.33;;;1.43;;
19828;SDS011;10075;50.924;4.396;2024-03-02T09:11:14;7.30;;;1.27;;
19828;SDS011;10075;50.924;4.396;2024-03-02T09:13:43;3.33;;;1.00;;
19828;SDS011;10075;50.924;4.396;2024-03-02T09:16:10;3.30;;;1.20;;
19828;SDS011;10075;50.924;4.396;2024-03-02T09:18:37;6.77;;;1.00;;
19828;SDS011;10075;50.924;4.396;2024-03-02T09:21:04;5.67;;;1.10;;
19828;SDS011;10075;50.924;4.396;2024-03-02T09:23:31;7.73;;;1.57;;
19828;SDS011;10075;50.924;4.396;2024-03-02T09:25:58;4.17;;;1.00;;
19828;SDS011;10075;50.924;4.396;2024-03-02T09:28:25;4.93;;;1.00;;
19828;SDS011;10075;50.924;4.396;2024-03-02T09:30:54;6.33;;;1.30;;
19828;SDS011;10075;50.924;4.396;2024-03-02T09:33:21;5.70;;;1.50;;
19828;SDS011;10075;50.924;4.396;2024-03-02T09:35:48;6.03;;;1.40;;
19828;SDS011;10075;50.924;4.396;2024-03-02T09:38:15;7.37;;;1.70;;
19828;SDS011;10075;50.924;4.396;2024-03-02T09:40:42;6.57;;;1.23;;
19828;SDS011;10075;50.924;4.396;2024-03-02T09:43:09;7.07;;;1.40;;
19828;SDS011;10075;50.924;4.396;2024-03-02T09:45:36;12.43;;;1.67;;
19828;SDS011;10075;50.924;4.396;2024-03-02T09:48:06;3.67;;;1.10;;
19828;SDS011;10075;50.924;4.396;2024-03-02T09:50:33;6.60;;;1.77;;
19828;SDS011;10075;50.924;4.396;2024-03-02T09:53:00;12.40;;;1.87;;
19828;SDS011;10075;50.924;4.396;2024-03-02T09:55:28;5.43;;;1.50;;
19828;SDS011;10075;50.924;4.396;2024-03-02T09:57:55;7.93;;;1.53;;
19828;SDS011;10075;50.924;4.396;2024-03-02T10:00:22;7.33;;;1.23;;
19828;SDS011;10075;50.924;4.396;2024-03-02T10:02:50;5.87;;;1.30;;
19828;SDS011;10075;50.924;4.396;2024-03-02T10:05:25;12.17;;;1.53;;
19828;SDS011;10075;50.924;4.396;2024-03-02T10:07:59;9.63;;;1.80;;
19828;SDS011;10075;50.924;4.396;2024-03-02T10:10:34;4.23;;;1.47;;
19828;SDS011;10075;50.924;4.396;2024-03-02T10:13:05;5.53;;;1.23;;
19828;SDS011;10075;50.924;4.396;2024-03-02T10:15:33;9.20;;;2.37;;
19828;SDS011;10075;50.924;4.396;2024-03-02T10:18:02;9.77;;;1.53;;
19828;SDS011;10075;50.924;4.396;2024-03-02T10:20:31;5.70;;;1.70;;
19828;SDS011;10075;50.924;4.396;2024-03-02T10:23:09;7.40;;;1.27;;
19828;SDS011;10075;50.924;4.396;2024-03-02T10:25:37;6.87;;;1.30;;
19828;SDS011;10075;50.924;4.396;2024-03-02T10:28:04;6.17;;;1.27;;
19828;SDS011;10075;50.924;4.396;2024-03-02T10:30:32;8.67;;;1.40;;
19828;SDS011;10075;50.924;4.396;2024-03-02T10:32:59;5.80;;;1.23;;
19828;SDS011;10075;50.924;4.396;2024-03-02T10:35:28;6.23;;;1.30;;
19828;SDS011;10075;50.924;4.396;2024-03-02T10:37:57;6.20;;;1.23;;
19828;SDS011;10075;50.924;4.396;2024-03-02T10:40:26;7.93;;;1.20;;
19828;SDS011;10075;50.924;4.396;2024-03-02T10:42:53;5.77;;;1.40;;
19828;SDS011;10075;50.924;4.396;2024-03-02T10:45:21;9.23;;;1.30;;
19828;SDS011;10075;50.924;4.396;2024-03-02T10:47:48;6.17;;;1.30;;
19828;SDS011;10075;50.924;4.396;2024-03-02T10:50:17;7.53;;;1.40;;
19828;SDS011;10075;50.924;4.396;2024-03-02T10:52:44;5.87;;;1.40;;
19828;SDS011;10075;50.924;4.396;2024-03-02T10:55:13;7.43;;;1.43;;
19828;SDS011;10075;50.924;4.396;2024-03-02T10:57:47;8.87;;;1.60;;
19828;SDS011;10075;50.924;4.396;2024-03-02T11:00:17;10.73;;;1.47;;
19828;SDS011;10075;50.924;4.396;2024-03-02T11:02:50;9.03;;;1.33;;
19828;SDS011;10075;50.924;4.396;2024-03-02T11:05:20;5.38;;;1.30;;
19828;SDS011;10075;50.924;4.396;2024-03-02T11:07:53;4.90;;;1.10;;
19828;SDS011;10075;50.924;4.396;2024-03-02T11:10:27;5.90;;;1.33;;
19828;SDS011;10075;50.924;4.396;2024-03-02T11:13:00;3.77;;;1.00;;
19828;SDS011;10075;50.924;4.396;2024-03-02T11:15:31;7.03;;;1.50;;
19828;SDS011;10075;50.924;4.396;2024-03-02T11:18:00;4.43;;;1.30;;
19828;SDS011;10075;50.924;4.396;2024-03-02T11:20:30;6.00;;;1.60;;
19828;SDS011;10075;50.924;4.396;2024-03-02T11:22:58;8.10;;;1.37;;
19828;SDS011;10075;50.924;4.396;2024-03-02T11:25:32;6.67;;;1.37;;
19828;SDS011;10075;50.924;4.396;2024-03-02T11:28:00;8.13;;;1.40;;
19828;SDS011;10075;50.924;4.396;2024-03-02T11:33:15;7.43;;;1.40;;
19828;SDS011;10075;50.924;4.396;2024-03-02T11:35:54;6.05;;;1.42;;
19828;SDS011;10075;50.924;4.396;2024-03-02T11:38:23;7.75;;;1.80;;
19828;SDS011;10075;50.924;4.396;2024-03-02T11:41:00;6.20;;;1.50;;
19828;SDS011;10075;50.924;4.396;2024-03-02T11:43:28;6.73;;;1.50;;
19828;SDS011;10075;50.924;4.396;2024-03-02T11:45:58;6.05;;;1.58;;
19828;SDS011;10075;50.924;4.396;2024-03-02T11:48:26;7.95;;;1.35;;
19828;SDS011;10075;50.924;4.396;2024-03-02T11:50:53;7.23;;;1.30;;
19828;SDS011;10075;50.924;4.396;2024-03-02T11:53:24;10.68;;;2.13;;
19828;SDS011;10075;50.924;4.396;2024-03-02T11:55:54;5.97;;;1.20;;
19828;SDS011;10075;50.924;4.396;2024-03-02T11:58:23;7.38;;;1.23;;
19828;SDS011;10075;50.924;4.396;2024-03-02T12:00:51;11.50;;;2.13;;
19828;SDS011;10075;50.924;4.396;2024-03-02T12:03:20;4.70;;;1.23;;
19828;SDS011;10075;50.924;4.396;2024-03-02T12:05:49;6.03;;;1.50;;
19828;SDS011;10075;50.924;4.396;2024-03-02T12:08:16;6.07;;;1.23;;
19828;SDS011;10075;50.924;4.396;2024-03-02T12:10:43;6.05;;;1.45;;
19828;SDS011;10075;50.924;4.396;2024-03-02T12:13:24;11.88;;;1.55;;
19828;SDS011;10075;50.924;4.396;2024-03-02T12:15:53;6.37;;;1.17;;
19828;SDS011;10075;50.924;4.396;2024-03-02T12:18:21;4.47;;;1.00;;
19828;SDS011;10075;50.924;4.396;2024-03-02T12:20:48;5.83;;;1.33;;
19828;SDS011;10075;50.924;4.396;2024-03-02T12:23:17;4.23;;;0.90;;
19828;SDS011;10075;50.924;4.396;2024-03-02T12:25:45;6.93;;;1.30;;
19828;SDS011;10075;50.924;4.396;2024-03-02T12:28:12;11.13;;;1.30;;
19828;SDS011;10075;50.924;4.396;2024-03-02T12:30:40;3.87;;;1.17;;
19828;SDS011;10075;50.924;4.396;2024-03-02T12:33:08;6.00;;;1.20;;
19828;SDS011;10075;50.924;4.396;2024-03-02T12:35:37;7.63;;;1.13;;
19828;SDS011;10075;50.924;4.396;2024-03-02T12:38:04;6.35;;;1.02;;
19828;SDS011;10075;50.924;4.396;2024-03-02T12:40:31;3.73;;;0.80;;
19828;SDS011;10075;50.924;4.396;2024-03-02T12:42:58;6.03;;;1.10;;
19828;SDS011;10075;50.924;4.396;2024-03-02T12:45:26;5.03;;;1.02;;
19828;SDS011;10075;50.924;4.396;2024-03-02T12:47:54;7.43;;;1.13;;
19828;SDS011;10075;50.924;4.396;2024-03-02T12:50:21;5.05;;;1.10;;
19828;SDS011;10075;50.924;4.396;2024-03-02T12:52:52;1.40;;;0.50;;
19828;SDS011;10075;50.924;4.396;2024-03-02T12:55:20;2.13;;;0.65;;
19828;SDS011;10075;50.924;4.396;2024-03-02T12:57:49;4.63;;;0.75;;
19828;SDS011;10075;50.924;4.396;2024-03-02T13:00:17;3.20;;;0.75;;
19828;SDS011;10075;50.924;4.396;2024-03-02T13:02:45;5.20;;;1.00;;
19828;SDS011;10075;50.924;4.396;2024-03-02T13:05:14;5.72;;;0.95;;
19828;SDS011;10075;50.924;4.396;2024-03-02T13:07:41;3.90;;;0.90;;
19828;SDS011;10075;50.924;4.396;2024-03-02T13:10:10;4.07;;;0.80;;
19828;SDS011;10075;50.924;4.396;2024-03-02T13:12:38;2.92;;;0.68;;
19828;SDS011;10075;50.924;4.396;2024-03-02T13:15:05;4.60;;;1.00;;
19828;SDS011;10075;50.924;4.396;2024-03-02T13:17:34;3.43;;;0.97;;
19828;SDS011;10075;50.924;4.396;2024-03-02T13:20:01;4.25;;;0.77;;
19828;SDS011;10075;50.924;4.396;2024-03-02T13:22:34;7.30;;;1.10;;
19828;SDS011;10075;50.924;4.396;2024-03-02T13:25:01;3.35;;;1.10;;
19828;SDS011;10075;50.924;4.396;2024-03-02T13:27:30;4.18;;;0.85;;
19828;SDS011;10075;50.924;4.396;2024-03-02T13:29:57;5.93;;;0.93;;
19828;SDS011;10075;50.924;4.396;2024-03-02T13:32:24;3.92;;;0.90;;
19828;SDS011;10075;50.924;4.396;2024-03-02T13:34:51;3.03;;;1.02;;
19828;SDS011;10075;50.924;4.396;2024-03-02T13:37:19;2.15;;;0.73;;
19828;SDS011;10075;50.924;4.396;2024-03-02T13:39:48;4.38;;;1.08;;
19828;SDS011;10075;50.924;4.396;2024-03-02T13:42:15;3.00;;;0.75;;
19828;SDS011;10075;50.924;4.396;2024-03-02T13:44:43;1.73;;;0.60;;
19828;SDS011;10075;50.924;4.396;2024-03-02T13:47:13;3.00;;;0.80;;
19828;SDS011;10075;50.924;4.396;2024-03-02T13:49:40;3.83;;;1.02;;
19828;SDS011;10075;50.924;4.396;2024-03-02T13:52:09;3.85;;;0.82;;
19828;SDS011;10075;50.924;4.396;2024-03-02T13:54:38;3.75;;;1.00;;
19828;SDS011;10075;50.924;4.396;2024-03-02T13:57:07;7.72;;;1.20;;
19828;SDS011;10075;50.924;4.396;2024-03-02T13:59:34;3.38;;;0.70;;
19828;SDS011;10075;50.924;4.396;2024-03-02T14:02:01;2.50;;;0.90;;
19828;SDS011;10075;50.924;4.396;2024-03-02T14:04:30;1.93;;;0.73;;
19828;SDS011;10075;50.924;4.396;2024-03-02T14:06:58;2.15;;;0.95;;
19828;SDS011;10075;50.924;4.396;2024-03-02T14:09:25;4.88;;;1.00;;
19828;SDS011;10075;50.924;4.396;2024-03-02T14:11:52;4.68;;;1.10;;
19828;SDS011;10075;50.924;4.396;2024-03-02T14:14:20;3.53;;;0.90;;
19828;SDS011;10075;50.924;4.396;2024-03-02T14:16:48;5.15;;;1.20;;
19828;SDS011;10075;50.924;4.396;2024-03-02T14:19:15;2.35;;;0.93;;
19828;SDS011;10075;50.924;4.396;2024-03-02T14:21:42;3.40;;;1.17;;
19828;SDS011;10075;50.924;4.396;2024-03-02T14:24:08;2.65;;;1.08;;
19828;SDS011;10075;50.924;4.396;2024-03-02T14:26:36;4.35;;;1.00;;
19828;SDS011;10075;50.924;4.396;2024-03-02T14:29:03;4.00;;;1.00;;
19828;SDS011;10075;50.924;4.396;2024-03-02T14:31:31;2.60;;;0.60;;
19828;SDS011;10075;50.924;4.396;2024-03-02T14:33:58;2.20;;;0.80;;
19828;SDS011;10075;50.924;4.396;2024-03-02T14:36:25;3.03;;;0.90;;
19828;SDS011;10075;50.924;4.396;2024-03-02T14:38:53;3.43;;;1.00;;
19828;SDS011;10075;50.924;4.396;2024-03-02T14:41:20;4.17;;;0.80;;
19828;SDS011;10075;50.924;4.396;2024-03-02T14:43:49;2.75;;;0.60;;
19828;SDS011;10075;50.924;4.396;2024-03-02T14:46:16;1.52;;;0.68;;
19828;SDS011;10075;50.924;4.396;2024-03-02T14:48:44;3.20;;;0.90;;
19828;SDS011;10075;50.924;4.396;2024-03-02T14:51:12;2.28;;;1.00;;
19828;SDS011;10075;50.924;4.396;2024-03-02T14:53:40;2.88;;;0.85;;
19828;SDS011;10075;50.924;4.396;2024-03-02T14:56:07;3.43;;;0.90;;